Data for 01/20/2009

Time Sea-Level Adjusted Pressure Absolute Pressure Temperature Relative Humidity Dew Point   
(mb) (inHg) (mb) (inHg) (C) (F) (%) (C) (F)
00:05 1032 30.47 861 25.43 -2.9 26.8 46 -13 8.6
00:10 1032 30.47 861 25.43 -2.7 27.2 46 -12.9 8.8
00:15 1032 30.47 861 25.43 -2.7 27.2 46 -12.7 9.2
00:20 1032 30.47 861 25.43 -2.7 27.1 45 -13.1 8.5
00:25 1032 30.47 861 25.43 -2.7 27.2 44 -13.5 7.8
00:30 1032 30.47 861 25.43 -2.6 27.4 43 -13.5 7.6
00:35 1032 30.47 861 25.43 -2.5 27.6 44 -13.2 8.2
00:40 1032 30.47 861 25.43 -2.5 27.6 44 -13 8.5
00:45 1032 30.47 861 25.43 -2.3 27.8 45 -12.9 8.9
00:50 1032 30.47 861 25.43 -2.2 28 43 -13.1 8.5
00:55 1032 30.47 861 25.43 -2.5 27.4 44 -13.1 8.4
01:00 1032 30.47 861 25.43 -2.9 26.7 45 -13.2 8.3
01:05 1031 30.45 861 25.43 -3.2 26.2 47 -13.1 8.4
01:10 1031 30.45 861 25.43 -3.5 25.7 47 -13.3 8.1
01:15 1031 30.45 860 25.4 -3.8 25.2 48 -13.3 8.1
01:20 1031 30.45 860 25.4 -3.8 25.1 47 -13.5 7.8
01:25 1031 30.45 860 25.4 -3.6 25.5 46 -13.7 7.4
01:30 1031 30.45 860 25.4 -3.4 25.9 46 -13.4 7.8
01:35 1031 30.45 860 25.4 -3.4 25.9 47 -13.2 8.2
01:40 1031 30.45 860 25.4 -3.5 25.8 48 -13 8.6
01:45 1031 30.45 860 25.4 -3.3 26.1 47 -13 8.6
01:50 1031 30.45 860 25.4 -3.3 26.1 47 -13.1 8.4
01:55 1031 30.45 860 25.4 -3.2 26.3 46 -13.3 8
02:00 1031 30.45 860 25.4 -2.9 26.8 43 -13.9 6.9
02:05 1031 30.45 860 25.4 -2.4 27.8 42 -13.5 7.7
02:10 1031 30.45 860 25.4 -2.2 28.1 42 -13.4 7.9
02:15 1031 30.45 860 25.4 -2.2 28 43 -13.3 8.1
02:20 1031 30.45 860 25.4 -2.4 27.6 44 -13 8.6
02:25 1031 30.45 860 25.4 -2.5 27.5 43 -13.3 8.1
02:30 1031 30.45 860 25.4 -2.6 27.4 43 -13.4 7.8
02:35 1031 30.45 860 25.4 -2.9 26.8 46 -13.1 8.5
02:40 1031 30.45 860 25.4 -3 26.6 45 -13.4 7.9
02:45 1031 30.45 860 25.4 -2.7 27.1 45 -13.2 8.3
02:50 1031 30.45 860 25.4 -2.6 27.4 44 -13.1 8.4
02:55 1031 30.45 860 25.4 -2.4 27.7 44 -13 8.6
03:00 1031 30.45 860 25.4 -2.6 27.2 46 -12.7 9.1
03:05 1031 30.45 860 25.4 -3.7 25.4 49 -12.8 9
03:10 1031 30.45 860 25.4 -4.1 24.7 49 -13.4 7.9
03:15 1031 30.45 860 25.4 -3.7 25.3 48 -13.3 8
03:20 1031 30.45 860 25.4 -3.9 25 50 -13 8.7
03:25 1031 30.45 860 25.4 -3.9 25.1 47 -13.6 7.6
03:30 1031 30.45 860 25.4 -3.1 26.5 45 -13.5 7.6
03:35 1031 30.45 860 25.4 -3.2 26.2 45 -13.4 7.9
03:40 1030 30.42 860 25.4 -3.5 25.7 46 -13.5 7.7
03:45 1030 30.42 860 25.4 -3.1 26.4 44 -13.8 7.2
03:50 1030 30.42 860 25.4 -2.5 27.4 43 -13.5 7.6
03:55 1030 30.42 859 25.37 -2.8 27 43 -13.6 7.5
04:00 1030 30.42 859 25.37 -2.9 26.8 43 -13.9 7.1
04:05 1030 30.42 859 25.37 -2.5 27.4 42 -13.8 7.2
04:10 1030 30.42 859 25.37 -2.4 27.6 43 -13.3 8
04:15 1030 30.42 859 25.37 -3.1 26.4 45 -13.5 7.6
04:20 1030 30.42 859 25.37 -3.1 26.5 43 -14.1 6.7
04:25 1030 30.42 859 25.37 -2.7 27.1 41 -14.3 6.3
04:30 1030 30.42 859 25.37 -2.2 28 40 -14.1 6.6
04:35 1030 30.42 859 25.37 -2.4 27.7 42 -13.6 7.6
04:40 1030 30.42 859 25.37 -2.4 27.7 42 -13.6 7.5
04:45 1030 30.42 859 25.37 -2.4 27.7 42 -13.6 7.6
04:50 1030 30.42 859 25.37 -2.5 27.4 43 -13.6 7.6
04:55 1030 30.42 859 25.37 -2.6 27.2 42 -13.8 7.1
05:00 1030 30.42 859 25.37 -2.8 26.9 42 -13.9 6.9
05:05 1030 30.42 859 25.37 -2.9 26.7 43 -13.9 7
05:10 1030 30.42 859 25.37 -3.2 26.2 46 -13.3 8
05:15 1030 30.42 859 25.37 -3.3 26.1 45 -13.7 7.3
05:20 1030 30.42 859 25.37 -2.8 26.9 44 -13.5 7.6
05:25 1030 30.42 859 25.37 -2.9 26.7 45 -13.4 7.9
05:30 1030 30.42 859 25.37 -3.4 25.9 47 -13.2 8.2
05:35 1030 30.42 859 25.37 -3.8 25.2 47 -13.6 7.6
05:40 1030 30.42 859 25.37 -3.8 25.2 47 -13.5 7.7
05:45 1030 30.42 859 25.37 -3.8 25.2 47 -13.4 7.9
05:50 1030 30.42 859 25.37 -3.4 25.9 46 -13.5 7.8
05:55 1029 30.39 859 25.37 -3.2 26.2 47 -13.1 8.5
06:00 1029 30.39 859 25.37 -3.3 26 47 -13.1 8.4
06:05 1029 30.39 859 25.37 -3.8 25.2 48 -13.2 8.3
06:10 1029 30.39 859 25.37 -4.8 23.4 52 -13.2 8.2
06:15 1029 30.39 859 25.37 -5 23.1 50 -13.9 7.1
06:20 1029 30.39 859 25.37 -4.6 23.7 49 -13.8 7.2
06:25 1029 30.39 859 25.37 -4.8 23.3 51 -13.5 7.6
06:30 1029 30.39 859 25.37 -5.1 22.9 51 -13.7 7.3
06:35 1029 30.39 859 25.37 -4.9 23.2 50 -13.7 7.3
06:40 1029 30.39 859 25.37 -4.7 23.5 50 -13.5 7.6
06:45 1029 30.39 859 25.37 -5 23.1 50 -13.8 7.2
06:50 1029 30.39 859 25.37 -4.8 23.4 50 -13.6 7.5
06:55 1029 30.39 859 25.37 -4.7 23.6 50 -13.6 7.4
07:00 1029 30.39 859 25.37 -4.6 23.8 50 -13.5 7.7
07:05 1029 30.39 859 25.37 -4.9 23.1 52 -13.4 7.9
07:10 1029 30.39 859 25.37 -4.9 23.2 52 -13.3 8.1
07:15 1029 30.39 859 25.37 -4.8 23.4 52 -13.3 8.1
07:20 1029 30.39 859 25.37 -4.7 23.5 51 -13.3 8.1
07:25 1029 30.39 859 25.37 -4.8 23.4 51 -13.5 7.7
07:30 1029 30.39 859 25.37 -4.6 23.7 52 -12.9 8.7
07:35 1029 30.39 859 25.37 -5.3 22.5 56 -12.8 8.9
07:40 1029 30.39 859 25.37 -5.2 22.6 54 -13.2 8.2
07:45 1029 30.39 859 25.37 -5.6 21.9 57 -12.9 8.7
07:50 1030 30.42 859 25.37 -5.9 21.4 57 -13.1 8.4
07:55 1030 30.42 859 25.37 -6.1 21 58 -13.1 8.4
08:00 1030 30.42 859 25.37 -6.3 20.7 59 -13.1 8.5
08:05 1030 30.42 859 25.37 -6.4 20.5 58 -13.4 8
08:10 1030 30.42 859 25.37 -6.4 20.5 58 -13.4 7.9
08:15 1030 30.42 859 25.37 -6.4 20.6 58 -13.3 8.1
08:20 1030 30.42 859 25.37 -6.1 21 57 -13.3 8.1
08:25 1030 30.42 859 25.37 -5.3 22.4 55 -13 8.7
08:30 1030 30.42 859 25.37 -5 22.9 53 -13.3 8.1
08:35 1030 30.42 859 25.37 -4.8 23.4 51 -13.4 7.9
08:40 1030 30.42 859 25.37 -4.7 23.5 51 -13.3 8
08:45 1030 30.42 859 25.37 -4.5 23.9 50 -13.5 7.8
08:50 1030 30.42 859 25.37 -4.5 24 50 -13.5 7.7
08:55 1030 30.42 859 25.37 -4.3 24.2 49 -13.6 7.6
09:00 1030 30.42 859 25.37 -3.8 25.2 47 -13.4 7.9
09:05 1030 30.42 859 25.37 -3.8 25.2 47 -13.4 7.9
09:10 1030 30.42 859 25.37 -3.2 26.3 46 -13.3 8.1
09:15 1030 30.42 859 25.37 -2.9 26.8 45 -13.1 8.4
09:20 1030 30.42 859 25.37 -3.2 26.2 46 -13.4 7.9
09:25 1029 30.39 859 25.37 -3 26.5 45 -13.3 8
09:30 1029 30.39 859 25.37 -2.6 27.3 44 -13.2 8.2
09:35 1029 30.39 859 25.37 -2.7 27.1 45 -13.2 8.3
09:40 1029 30.39 859 25.37 -2.7 27.1 45 -13.2 8.3
09:45 1029 30.39 859 25.37 -2.4 27.7 43 -13.5 7.7
09:50 1029 30.39 858 25.34 -1.7 28.9 42 -13.2 8.3
09:55 1029 30.39 858 25.34 -1.4 29.5 41 -13 8.5
10:00 1029 30.39 858 25.34 -1.6 29.1 44 -12.3 9.8
10:05 1029 30.39 858 25.34 -0.8 30.6 41 -12.4 9.6
10:10 1029 30.39 858 25.34 -0.1 31.7 38 -12.8 9
10:15 1029 30.39 858 25.34 0.2 32.3 37 -12.9 8.8
10:20 1029 30.39 858 25.34 0.5 32.9 37 -12.7 9.1
10:25 1029 30.39 858 25.34 0.7 33.3 36 -12.9 8.8
10:30 1029 30.39 858 25.34 1.2 34.2 34 -12.8 8.9
10:35 1029 30.39 858 25.34 0.9 33.6 36 -12.5 9.5
10:40 1029 30.39 858 25.34 1.3 34.4 35 -12.6 9.3
10:45 1029 30.39 858 25.34 2.2 36 33 -12.3 9.8
10:50 1029 30.39 858 25.34 2.5 36.5 33 -12.1 10.3
10:55 1029 30.39 858 25.34 2.4 36.3 34 -11.9 10.6
11:00 1029 30.39 858 25.34 2.4 36.4 32 -12.6 9.3
11:05 1029 30.39 858 25.34 1.3 34.3 37 -11.7 10.9
11:10 1029 30.39 858 25.34 0.9 33.7 40 -11.1 12
11:15 1029 30.39 858 25.34 0.4 32.8 40 -11.7 10.9
11:20 1029 30.39 858 25.34 1.3 34.4 38 -11.7 11
11:25 1028 30.36 858 25.34 1.2 34.1 38 -11.6 11.1
11:30 1028 30.36 858 25.34 0.9 33.7 38 -11.8 10.7
11:35 1028 30.36 857 25.31 1.3 34.3 35 -12.4 9.7
11:40 1028 30.36 857 25.31 1.1 34 36 -12.3 9.9
11:45 1028 30.36 857 25.31 1.5 34.7 36 -12 10.4
11:50 1028 30.36 857 25.31 1.3 34.3 37 -11.9 10.5
11:55 1028 30.36 857 25.31 1.7 35 33 -12.8 8.9
12:00 1028 30.36 857 25.31 1.8 35.2 34 -12.6 9.3
12:05 1028 30.36 857 25.31 2.5 36.5 34 -11.9 10.5
12:10 1028 30.36 857 25.31 3.1 37.6 31 -12.2 10
12:15 1027 30.33 857 25.31 2.8 37 32 -12.4 9.7
12:20 1027 30.33 857 25.31 2.2 35.9 35 -11.6 11.1
12:25 1027 30.33 857 25.31 3.3 37.9 32 -12.1 10.3
12:30 1027 30.33 857 25.31 3 37.5 32 -12 10.3
12:35 1027 30.33 856 25.28 3.9 39 30 -12.3 9.8
12:40 1027 30.33 856 25.28 3.6 38.5 32 -11.6 11.2
12:45 1027 30.33 856 25.28 3.6 38.4 31 -11.9 10.6
12:50 1027 30.33 856 25.28 3.4 38.2 35 -10.7 12.8
12:55 1027 30.33 856 25.28 2.8 37.1 34 -11.7 10.9
13:00 1027 30.33 856 25.28 3 37.4 32 -12 10.4
13:05 1027 30.33 856 25.28 2.8 37.1 34 -11.4 11.5
13:10 1027 30.33 856 25.28 2.4 36.3 33 -12.2 10.1
13:15 1027 30.33 856 25.28 3.2 37.7 34 -11.4 11.5
13:20 1027 30.33 856 25.28 2.8 37 34 -11.8 10.8
13:25 1027 30.33 856 25.28 4.3 39.8 30 -11.9 10.5
13:30 1027 30.33 856 25.28 4.9 40.8 30 -11.4 11.5
13:35 1027 30.33 856 25.28 5.1 41.2 29 -11.5 11.3
13:40 1026 30.3 856 25.28 5.3 41.5 30 -11.1 12
13:45 1026 30.3 856 25.28 4.5 40.1 30 -11.9 10.6
13:50 1026 30.3 856 25.28 4.4 39.9 29 -12.4 9.8
13:55 1026 30.3 855 25.25 4.2 39.6 29 -12.2 10.1
14:00 1026 30.3 855 25.25 3.8 38.9 34 -10.6 13
14:05 1026 30.3 855 25.25 4.1 39.4 32 -11.1 12
14:10 1026 30.3 855 25.25 4.6 40.3 28 -12.3 9.8
14:15 1026 30.3 855 25.25 4.9 40.9 28 -12.1 10.3
14:20 1026 30.3 855 25.25 4.9 40.7 28 -12.3 9.8
14:25 1026 30.3 855 25.25 4.9 40.9 28 -12.1 10.3
14:30 1026 30.3 855 25.25 5.6 42.1 25 -12.8 9
14:35 1026 30.3 855 25.25 5.9 42.6 27 -11.9 10.6
14:40 1026 30.3 855 25.25 6.4 43.4 26 -12 10.3
14:45 1026 30.3 855 25.25 6.6 43.9 25 -12.3 9.9
14:50 1026 30.3 855 25.25 7.1 44.8 24 -12 10.4
14:55 1026 30.3 855 25.25 7.4 45.4 24 -12.1 10.3
15:00 1026 30.3 855 25.25 7.5 45.4 23 -12.4 9.6
15:05 1026 30.3 855 25.25 7.6 45.7 22 -12.7 9.2
15:10 1025 30.27 855 25.25 7.4 45.4 24 -11.7 10.9
15:15 1025 30.27 855 25.25 7.1 44.8 25 -11.8 10.8
15:20 1025 30.27 855 25.25 6.8 44.2 25 -11.8 10.8
15:25 1025 30.27 854 25.22 6.7 44.1 26 -11.4 11.5
15:30 1025 30.27 854 25.22 7.3 45.1 25 -11.3 11.6
15:35 1025 30.27 854 25.22 7.7 45.9 24 -11.7 11
15:40 1025 30.27 854 25.22 7.8 46.1 25 -11 12.3
15:45 1025 30.27 854 25.22 7.6 45.7 25 -11 12.2
15:50 1025 30.27 854 25.22 7.6 45.7 25 -11.2 11.8
15:55 1025 30.27 854 25.22 7.5 45.4 26 -10.9 12.4
16:00 1025 30.27 854 25.22 7.2 45 27 -10.5 13.1
16:05 1025 30.27 854 25.22 7 44.6 28 -10.5 13.2
16:10 1025 30.27 854 25.22 7.3 45.1 26 -10.8 12.5
16:15 1025 30.27 854 25.22 7.4 45.4 26 -10.8 12.6
16:20 1025 30.27 854 25.22 6.9 44.4 26 -11.2 11.8
16:25 1025 30.27 854 25.22 6.5 43.7 26 -11.4 11.4
16:30 1025 30.27 854 25.22 6.1 43 31 -9.8 14.3
16:35 1025 30.27 854 25.22 5 41 33 -10.1 13.8
16:40 1025 30.27 854 25.22 4.5 40.1 33 -10.3 13.4
16:45 1025 30.27 854 25.22 4.3 39.7 36 -9.6 14.6
16:50 1025 30.27 854 25.22 3.6 38.4 39 -9.1 15.6
16:55 1025 30.27 854 25.22 3.2 37.8 40 -9.2 15.4
17:00 1025 30.27 854 25.22 3 37.4 40 -9.3 15.3
17:05 1025 30.27 854 25.22 2.8 37.1 41 -9.2 15.5
17:10 1025 30.27 854 25.22 2.4 36.3 42 -9.2 15.4
17:15 1025 30.27 854 25.22 2 35.6 41 -10.1 13.9
17:20 1025 30.27 854 25.22 1.9 35.4 42 -9.6 14.7
17:25 1025 30.27 854 25.22 1.8 35.3 41 -10.1 13.8
17:30 1025 30.27 854 25.22 1.8 35.3 41 -10 14.1
17:35 1025 30.27 854 25.22 1.8 35.2 41 -10.1 13.9
17:40 1025 30.27 854 25.22 1.8 35.3 43 -9.5 14.9
17:45 1025 30.27 854 25.22 1.7 35 43 -9.6 14.7
17:50 1025 30.27 854 25.22 1.6 34.9 43 -9.5 14.8
17:55 1025 30.27 854 25.22 1.4 34.5 43 -9.9 14.3
18:00 1025 30.27 854 25.22 1.2 34.2 45 -9.4 15.1
18:05 1025 30.27 854 25.22 1 33.8 45 -9.6 14.8
18:10 1025 30.27 854 25.22 0.9 33.6 43 -10.2 13.6
18:15 1025 30.27 854 25.22 0.9 33.6 43 -10.3 13.5
18:20 1025 30.27 854 25.22 0.8 33.4 45 -9.9 14.1
18:25 1025 30.27 854 25.22 0.9 33.6 43 -10.5 13.2
18:30 1025 30.27 854 25.22 1.5 34.7 39 -11.1 12
18:35 1025 30.27 854 25.22 1.5 34.8 40 -10.7 12.8
18:40 1025 30.27 854 25.22 1.1 33.9 42 -10.4 13.3
18:45 1025 30.27 854 25.22 0.9 33.6 43 -10.3 13.5
18:50 1025 30.27 854 25.22 0.7 33.2 42 -10.8 12.6
18:55 1024 30.24 854 25.22 0.6 33 42 -10.8 12.5
19:00 1024 30.24 854 25.22 0.3 32.5 44 -10.7 12.7
19:05 1024 30.24 854 25.22 -0.2 31.6 46 -10.5 13.1
19:10 1024 30.24 853 25.19 -0.6 30.9 44 -11.4 11.4
19:15 1024 30.24 853 25.19 -0.4 31.2 43 -11.5 11.2
19:20 1024 30.24 853 25.19 -0.4 31.3 42 -11.9 10.6
19:25 1024 30.24 853 25.19 0 32 39 -12.3 9.8
19:30 1024 30.24 853 25.19 0.3 32.5 39 -12 10.3
19:35 1024 30.24 853 25.19 -0 32 41 -11.8 10.7
19:40 1024 30.24 853 25.19 -0.2 31.6 40 -12.2 10.1
19:45 1024 30.24 853 25.19 -0.2 31.6 39 -12.6 9.3
19:50 1024 30.24 853 25.19 -0 32 38 -12.7 9.2
19:55 1024 30.24 853 25.19 0 32 39 -12.5 9.6
20:00 1024 30.24 853 25.19 -0 31.9 38 -12.7 9.2
20:05 1024 30.24 853 25.19 0.2 32.3 37 -13 8.6
20:10 1024 30.24 853 25.19 0.5 33 35 -13.1 8.4
20:15 1024 30.24 853 25.19 0.5 33 35 -13.1 8.3
20:20 1024 30.24 853 25.19 0.5 32.8 36 -13 8.6
20:25 1024 30.24 853 25.19 0.3 32.6 36 -13.1 8.4
20:30 1024 30.24 853 25.19 0.3 32.5 37 -12.8 8.9
20:35 1024 30.24 853 25.19 0.2 32.4 36 -13.1 8.4
20:40 1024 30.24 853 25.19 0.1 32.2 38 -12.7 9.2
20:45 1024 30.24 853 25.19 0.1 32.1 36 -13.3 8.1
20:50 1024 30.24 853 25.19 0.5 32.9 35 -13.3 8.1
20:55 1024 30.24 853 25.19 0.5 32.9 36 -12.8 8.9
21:00 1024 30.24 853 25.19 0.1 32.1 36 -13.2 8.2
21:05 1024 30.24 853 25.19 0.2 32.3 38 -12.6 9.2
21:10 1024 30.24 853 25.19 0.4 32.7 36 -13 8.6
21:15 1024 30.24 853 25.19 -0.3 31.5 38 -12.9 8.7
21:20 1024 30.24 853 25.19 -0.5 31.2 39 -12.9 8.8
21:25 1024 30.24 853 25.19 -0.5 31.1 39 -12.8 8.9
21:30 1024 30.24 853 25.19 -0.4 31.3 40 -12.5 9.5
21:35 1024 30.24 853 25.19 -0.8 30.6 41 -12.4 9.7
21:40 1024 30.24 853 25.19 -0.9 30.3 39 -13.2 8.2
21:45 1023 30.21 853 25.19 -1.1 30.1 41 -12.7 9.2
21:50 1023 30.21 853 25.19 -1.6 29.2 43 -12.7 9.2
21:55 1023 30.21 853 25.19 -1.6 29.1 42 -13 8.6
22:00 1023 30.21 853 25.19 -1.6 29 42 -12.9 8.8
22:05 1023 30.21 853 25.19 -1.3 29.6 41 -13.1 8.4
22:10 1023 30.21 853 25.19 -1.2 29.8 41 -12.8 9
22:15 1023 30.21 852 25.16 -1.1 29.9 40 -13 8.6
22:20 1023 30.21 852 25.16 -1 30.2 39 -13.2 8.3
22:25 1023 30.21 852 25.16 -0.9 30.4 40 -13 8.6
22:30 1023 30.21 852 25.16 -1.1 30.1 39 -13.3 8.1
22:35 1023 30.21 852 25.16 -1 30.2 39 -13.2 8.3
22:40 1023 30.21 852 25.16 -1.4 29.5 40 -13.2 8.2
22:45 1023 30.21 852 25.16 -1.4 29.4 40 -13.3 8.1
22:50 1023 30.21 852 25.16 -1.2 29.9 39 -13.4 7.9
22:55 1023 30.21 852 25.16 -0.8 30.6 37 -13.6 7.4
23:00 1023 30.21 852 25.16 -0.5 31 36 -13.9 6.9
23:05 1023 30.21 853 25.19 -0.3 31.5 34 -14.3 6.3
23:10 1023 30.21 853 25.19 0.1 32.3 35 -13.7 7.3
23:15 1023 30.21 853 25.19 -0.1 31.9 36 -13.4 7.9
23:20 1023 30.21 852 25.16 -0.3 31.5 36 -13.6 7.5
23:25 1023 30.21 852 25.16 -0.3 31.5 36 -13.7 7.3
23:30 1023 30.21 852 25.16 -0.2 31.6 34 -14.2 6.5
23:35 1023 30.21 852 25.16 -0.3 31.5 34 -14.2 6.4
23:40 1023 30.21 852 25.16 0.2 32.3 33 -14.5 6
23:45 1023 30.21 852 25.16 0.8 33.4 32 -14.3 6.3
23:50 1023 30.21 852 25.16 0.7 33.3 33 -13.7 7.3
23:55 1023 30.21 852 25.16 0.1 32.2 35 -13.6 7.6
24:00 1023 30.21 852 25.16 -0.8 30.6 38 -13.4 7.9